createdAt,value
2019-03-24T00:02:15.139Z,9.00
2019-03-24T00:04:43.575Z,9.67
2019-03-24T00:07:11.978Z,10.30
2019-03-24T00:09:40.515Z,9.20
2019-03-24T00:12:08.999Z,9.57
2019-03-24T00:14:37.581Z,9.47
2019-03-24T00:17:06.108Z,9.20
2019-03-24T00:19:34.513Z,8.80
2019-03-24T00:22:02.939Z,10.37
2019-03-24T00:24:31.401Z,10.50
2019-03-24T00:26:59.838Z,10.70
2019-03-24T00:29:28.316Z,9.73
2019-03-24T00:31:56.786Z,10.37
2019-03-24T00:34:25.203Z,9.90
2019-03-24T00:36:53.631Z,9.50
2019-03-24T00:39:22.061Z,9.40
2019-03-24T00:41:50.449Z,9.90
2019-03-24T00:44:18.899Z,9.53
2019-03-24T00:46:47.381Z,9.43
2019-03-24T00:49:15.794Z,8.57
2019-03-24T00:51:44.371Z,8.90
2019-03-24T00:54:12.842Z,9.50
2019-03-24T00:56:41.478Z,11.27
2019-03-24T00:59:10.019Z,9.60
2019-03-24T01:01:38.606Z,9.00
2019-03-24T01:04:07.141Z,9.97
2019-03-24T01:06:35.642Z,10.70
2019-03-24T01:09:06.033Z,9.37
2019-03-24T01:11:34.543Z,9.27
2019-03-24T01:14:03.120Z,9.73
2019-03-24T01:16:31.730Z,10.30
2019-03-24T01:19:00.184Z,10.03
2019-03-24T01:21:28.716Z,9.30
2019-03-24T01:23:57.119Z,9.27
2019-03-24T01:26:25.543Z,10.07
2019-03-24T01:28:54.002Z,9.57
2019-03-24T01:31:22.464Z,10.27
2019-03-24T01:33:50.880Z,10.33
2019-03-24T01:36:19.368Z,11.07
2019-03-24T01:38:47.932Z,10.23
2019-03-24T01:41:16.406Z,10.67
2019-03-24T01:43:44.921Z,10.37
2019-03-24T01:46:13.421Z,11.03
2019-03-24T01:48:41.839Z,11.40
2019-03-24T01:51:10.261Z,10.73
2019-03-24T01:53:38.685Z,11.90
2019-03-24T01:56:07.097Z,11.37
2019-03-24T01:58:35.518Z,10.20
2019-03-24T02:01:04.000Z,10.07
2019-03-24T02:03:32.542Z,11.97
2019-03-24T02:06:00.983Z,11.07
2019-03-24T02:08:29.411Z,11.70
2019-03-24T02:10:57.813Z,12.53
2019-03-24T02:13:29.110Z,13.00
2019-03-24T02:15:57.532Z,11.67
2019-03-24T02:18:25.995Z,12.93
2019-03-24T02:20:54.373Z,13.07
2019-03-24T02:23:22.857Z,12.47
2019-03-24T02:25:51.278Z,14.90
2019-03-24T02:28:19.702Z,17.60
2019-03-24T02:30:48.098Z,18.63
2019-03-24T02:33:16.508Z,19.10
2019-03-24T02:35:44.966Z,19.43
2019-03-24T02:38:13.366Z,16.47
2019-03-24T02:40:41.817Z,18.50
2019-03-24T02:43:10.239Z,22.10
2019-03-24T02:45:38.648Z,18.60
2019-03-24T02:48:07.114Z,18.23
2019-03-24T02:50:35.571Z,19.00
2019-03-24T02:53:04.059Z,21.00
2019-03-24T02:55:32.451Z,19.73
2019-03-24T02:58:00.905Z,20.23
2019-03-24T03:00:29.281Z,19.50
2019-03-24T03:02:57.705Z,21.20
2019-03-24T03:05:26.102Z,20.23
2019-03-24T03:07:54.560Z,20.87
2019-03-24T03:10:22.955Z,21.23
2019-03-24T03:12:51.363Z,20.63
2019-03-24T03:15:19.798Z,20.10
2019-03-24T03:17:48.269Z,20.03
2019-03-24T03:20:16.814Z,22.37
2019-03-24T03:22:45.296Z,21.47
2019-03-24T03:25:13.997Z,21.57
2019-03-24T03:27:42.405Z,21.93
2019-03-24T03:30:11.349Z,20.97
2019-03-24T03:32:39.831Z,21.60
2019-03-24T03:35:09.011Z,22.07
2019-03-24T03:37:37.462Z,21.63
2019-03-24T03:40:06.848Z,23.13
2019-03-24T03:42:35.354Z,21.80
2019-03-24T03:45:05.006Z,19.57
2019-03-24T03:47:33.421Z,20.47
2019-03-24T03:50:01.822Z,20.00
2019-03-24T03:52:30.239Z,21.63
2019-03-24T03:54:58.678Z,21.40
2019-03-24T03:57:27.094Z,21.23
2019-03-24T03:59:55.518Z,20.50
2019-03-24T04:02:23.941Z,19.30
2019-03-24T04:04:52.372Z,21.63
2019-03-24T04:07:20.754Z,20.87
2019-03-24T04:09:49.235Z,21.23
2019-03-24T04:12:17.673Z,20.90
2019-03-24T04:14:46.149Z,20.07
2019-03-24T04:17:14.628Z,20.37
2019-03-24T04:19:43.041Z,18.80
2019-03-24T04:22:11.546Z,20.57
2019-03-24T04:24:40.041Z,21.23
2019-03-24T04:27:08.452Z,19.50
2019-03-24T04:29:36.851Z,20.20
2019-03-24T04:32:05.356Z,18.03
2019-03-24T04:34:33.763Z,18.73
2019-03-24T04:37:02.172Z,18.33
2019-03-24T04:39:30.622Z,20.10
2019-03-24T04:41:59.052Z,19.73
2019-03-24T04:44:27.461Z,19.00
2019-03-24T04:46:55.859Z,16.17
2019-03-24T04:49:24.342Z,16.60
2019-03-24T04:51:52.743Z,16.23
2019-03-24T04:54:21.187Z,15.60
2019-03-24T04:56:49.565Z,15.70
2019-03-24T04:59:17.981Z,16.03
2019-03-24T05:01:46.429Z,16.10
2019-03-24T05:04:17.500Z,16.47
2019-03-24T05:06:45.991Z,15.40
2019-03-24T05:09:15.342Z,14.30
2019-03-24T05:11:43.743Z,14.07
2019-03-24T05:14:12.165Z,14.87
2019-03-24T05:16:40.577Z,13.23
2019-03-24T05:19:09.000Z,13.07
2019-03-24T05:21:37.435Z,13.20
2019-03-24T05:24:05.841Z,13.73
2019-03-24T05:26:34.260Z,13.00
2019-03-24T05:29:02.672Z,12.57
2019-03-24T05:31:31.121Z,13.10
2019-03-24T05:33:59.558Z,11.57
2019-03-24T05:36:27.964Z,10.33
2019-03-24T05:38:56.395Z,11.70
2019-03-24T05:41:24.807Z,11.00
2019-03-24T05:43:53.332Z,9.80
2019-03-24T05:46:21.778Z,9.83
2019-03-24T05:48:50.188Z,9.07
2019-03-24T05:51:18.609Z,9.33
2019-03-24T05:53:47.012Z,9.50
2019-03-24T05:56:15.472Z,9.53
2019-03-24T05:58:43.915Z,8.63
2019-03-24T06:01:12.336Z,9.37
2019-03-24T06:03:40.731Z,7.80
2019-03-24T06:06:09.134Z,7.90
2019-03-24T06:08:37.557Z,8.40
2019-03-24T06:11:06.050Z,7.47
2019-03-24T06:13:34.653Z,7.50
2019-03-24T06:16:03.112Z,7.53
2019-03-24T06:18:31.525Z,6.40
2019-03-24T06:20:59.947Z,5.53
2019-03-24T06:23:28.358Z,6.07
2019-03-24T06:25:56.796Z,5.63
2019-03-24T06:28:25.256Z,6.87
2019-03-24T06:30:53.697Z,5.23
2019-03-24T06:33:22.124Z,6.10
2019-03-24T06:35:50.501Z,6.27
2019-03-24T06:38:18.981Z,6.43
2019-03-24T06:40:47.370Z,6.77
2019-03-24T06:43:15.815Z,5.60
2019-03-24T06:45:44.224Z,5.60
2019-03-24T06:48:12.676Z,5.00
2019-03-24T06:50:41.112Z,5.53
2019-03-24T06:53:09.577Z,5.57
2019-03-24T06:55:37.975Z,5.60
2019-03-24T06:58:06.376Z,5.20
2019-03-24T07:00:34.775Z,5.50
2019-03-24T07:03:03.169Z,6.13
2019-03-24T07:05:31.592Z,6.37
2019-03-24T07:07:59.991Z,5.67
2019-03-24T07:10:28.397Z,4.40
2019-03-24T07:12:56.815Z,5.60
2019-03-24T07:15:25.254Z,6.00
2019-03-24T07:17:53.665Z,4.70
2019-03-24T07:20:22.069Z,5.97
2019-03-24T07:22:50.548Z,5.47
2019-03-24T07:25:19.101Z,6.73
2019-03-24T07:27:47.507Z,6.67
2019-03-24T07:30:16.055Z,6.03
2019-03-24T07:32:44.445Z,5.80
2019-03-24T07:35:13.764Z,5.87
2019-03-24T07:37:42.169Z,5.77
2019-03-24T07:40:10.863Z,6.60
2019-03-24T07:42:39.289Z,7.30
2019-03-24T07:45:08.437Z,6.83
2019-03-24T07:47:36.858Z,6.40
2019-03-24T07:50:09.223Z,6.90
2019-03-24T07:52:40.654Z,6.30
2019-03-24T07:55:09.957Z,7.30
2019-03-24T07:57:38.361Z,7.43
2019-03-24T08:00:09.297Z,7.30
2019-03-24T08:02:37.702Z,6.47
2019-03-24T08:05:06.454Z,6.60
2019-03-24T08:07:34.881Z,6.67
2019-03-24T08:10:05.148Z,7.10
2019-03-24T08:12:33.579Z,7.67
2019-03-24T08:15:03.594Z,8.40
2019-03-24T08:17:31.972Z,7.30
2019-03-24T08:20:00.402Z,7.80
2019-03-24T08:22:28.948Z,7.23
2019-03-24T08:24:57.342Z,7.53
2019-03-24T08:27:25.776Z,7.30
2019-03-24T08:29:54.198Z,7.73
2019-03-24T08:32:22.598Z,7.57
2019-03-24T08:34:51.048Z,8.50
2019-03-24T08:37:19.527Z,7.90
2019-03-24T08:39:47.918Z,8.50
2019-03-24T08:42:16.421Z,8.73
2019-03-24T08:44:44.817Z,9.97
2019-03-24T08:47:13.272Z,8.70
2019-03-24T08:49:41.691Z,8.00
2019-03-24T08:52:10.091Z,8.00
2019-03-24T08:54:38.501Z,8.03
2019-03-24T08:57:06.960Z,8.27
2019-03-24T08:59:36.904Z,9.10
2019-03-24T09:02:05.408Z,9.23
2019-03-24T09:04:35.476Z,8.90
2019-03-24T09:07:03.875Z,9.17
2019-03-24T09:09:32.310Z,8.47
2019-03-24T09:12:00.802Z,9.13
2019-03-24T09:14:29.224Z,9.17
2019-03-24T09:16:57.617Z,8.40
2019-03-24T09:19:26.025Z,10.03
2019-03-24T09:21:54.502Z,8.17
2019-03-24T09:24:22.916Z,7.93
2019-03-24T09:26:51.401Z,11.93
2019-03-24T09:29:19.822Z,7.63
2019-03-24T09:31:48.255Z,7.40
2019-03-24T09:34:16.682Z,7.60
2019-03-24T09:36:45.081Z,8.33
2019-03-24T09:39:15.003Z,13.53
2019-03-24T09:41:45.001Z,8.93
2019-03-24T09:44:16.473Z,7.50
2019-03-24T09:46:44.897Z,7.70
2019-03-24T09:49:15.992Z,9.10
2019-03-24T09:51:44.531Z,8.87
2019-03-24T09:54:12.967Z,8.73
2019-03-24T09:56:41.538Z,9.50
2019-03-24T09:59:09.939Z,10.40
2019-03-24T10:01:41.319Z,9.47
2019-03-24T10:04:09.739Z,10.87
2019-03-24T10:06:38.128Z,22.17
2019-03-24T10:09:07.181Z,10.50
2019-03-24T10:11:35.594Z,11.03
2019-03-24T10:14:05.566Z,10.77
2019-03-24T10:16:34.124Z,11.60
2019-03-24T10:19:13.285Z,11.00
2019-03-24T10:21:32.723Z,11.13
2019-03-24T10:24:01.143Z,11.40
2019-03-24T10:26:29.547Z,11.40
2019-03-24T10:28:57.983Z,10.00
2019-03-24T10:31:27.914Z,10.73
2019-03-24T10:33:56.350Z,10.70
2019-03-24T10:36:24.776Z,9.97
2019-03-24T10:38:53.208Z,10.40
2019-03-24T10:41:21.642Z,10.27
2019-03-24T10:43:50.044Z,10.03
2019-03-24T10:46:18.458Z,9.50
2019-03-24T10:48:46.874Z,9.83
2019-03-24T10:51:15.272Z,8.93
2019-03-24T10:53:43.669Z,8.17
2019-03-24T10:56:12.074Z,9.47
2019-03-24T10:58:40.465Z,9.37
2019-03-24T11:01:08.930Z,8.50
2019-03-24T11:03:37.309Z,9.20
2019-03-24T11:06:05.723Z,6.80
2019-03-24T11:08:34.127Z,7.23
2019-03-24T11:11:02.721Z,7.80
2019-03-24T11:13:31.131Z,7.83
2019-03-24T11:15:59.772Z,7.30
2019-03-24T11:18:28.245Z,7.30
2019-03-24T11:20:56.651Z,8.40
2019-03-24T11:23:25.095Z,8.13
2019-03-24T11:25:53.567Z,6.63
2019-03-24T11:28:22.009Z,7.20
2019-03-24T11:30:50.471Z,6.30
2019-03-24T11:33:18.931Z,6.47
2019-03-24T11:35:47.354Z,7.30
2019-03-24T11:38:15.772Z,7.43
2019-03-24T11:40:44.194Z,7.07
2019-03-24T11:43:12.607Z,5.70
2019-03-24T11:45:41.035Z,5.50
2019-03-24T11:48:09.443Z,4.37
2019-03-24T11:50:37.909Z,4.07
2019-03-24T11:53:06.397Z,4.13
2019-03-24T11:55:34.786Z,5.03
2019-03-24T11:58:05.968Z,4.73
2019-03-24T12:00:34.985Z,4.27
2019-03-24T12:03:03.467Z,7.80
2019-03-24T12:05:32.020Z,6.23
2019-03-24T12:08:00.536Z,7.87
2019-03-24T12:10:28.927Z,7.80
2019-03-24T12:12:57.365Z,8.10
2019-03-24T12:15:28.511Z,7.77
2019-03-24T12:17:58.596Z,8.03
2019-03-24T12:20:27.192Z,7.30
2019-03-24T12:22:55.531Z,8.63
2019-03-24T12:25:23.959Z,7.70
2019-03-24T12:27:52.366Z,8.60
2019-03-24T12:30:20.928Z,7.17
2019-03-24T12:32:49.403Z,9.23
2019-03-24T12:35:17.909Z,7.20
2019-03-24T12:37:46.303Z,8.30
2019-03-24T12:40:14.969Z,6.30
2019-03-24T12:42:43.419Z,6.63
2019-03-24T12:45:13.389Z,6.40
2019-03-24T12:47:41.835Z,5.53
2019-03-24T12:50:11.011Z,4.50
2019-03-24T12:52:39.511Z,4.53
2019-03-24T12:55:08.444Z,5.40
2019-03-24T12:57:36.976Z,4.40
2019-03-24T13:00:10.662Z,4.10
2019-03-24T13:02:39.209Z,4.47
2019-03-24T13:05:09.072Z,4.13
2019-03-24T13:07:37.537Z,8.60
2019-03-24T13:10:09.550Z,4.50
2019-03-24T13:12:38.027Z,4.50
2019-03-24T13:15:08.067Z,4.37
2019-03-24T13:17:36.638Z,4.07
2019-03-24T13:20:06.741Z,4.20
2019-03-24T13:22:35.233Z,3.93
2019-03-24T13:25:05.484Z,3.67
2019-03-24T13:27:33.965Z,8.07
2019-03-24T13:30:02.386Z,3.07
2019-03-24T13:32:30.787Z,2.87
2019-03-24T13:34:59.194Z,3.93
2019-03-24T13:37:27.603Z,3.70
2019-03-24T13:39:56.027Z,4.00
2019-03-24T13:42:24.440Z,4.00
2019-03-24T13:44:52.855Z,3.70
2019-03-24T13:47:21.263Z,4.10
2019-03-24T13:49:49.671Z,10.57
2019-03-24T13:52:18.227Z,3.60
2019-03-24T13:54:46.695Z,3.87
2019-03-24T13:57:15.238Z,2.90
2019-03-24T13:59:43.644Z,3.43
2019-03-24T14:02:12.104Z,2.93
2019-03-24T14:04:40.533Z,6.40
2019-03-24T14:07:08.934Z,2.40
2019-03-24T14:09:37.427Z,2.67
2019-03-24T14:12:05.973Z,2.67
2019-03-24T14:14:34.378Z,3.40
2019-03-24T14:17:02.889Z,2.63
2019-03-24T14:19:31.293Z,2.90
2019-03-24T14:21:59.714Z,2.67
2019-03-24T14:24:28.144Z,3.03
2019-03-24T14:26:56.554Z,3.10
2019-03-24T14:29:27.074Z,2.33
2019-03-24T14:31:55.100Z,3.13
2019-03-24T14:34:23.587Z,3.47
2019-03-24T14:36:51.990Z,3.20
2019-03-24T14:39:20.469Z,2.90
2019-03-24T14:41:48.895Z,3.50
2019-03-24T14:44:17.335Z,3.30
2019-03-24T14:46:45.718Z,3.00
2019-03-24T14:49:14.188Z,2.27
2019-03-24T14:51:42.678Z,2.60
2019-03-24T14:54:11.149Z,4.90
2019-03-24T14:56:39.528Z,2.30
2019-03-24T14:59:07.961Z,2.20
2019-03-24T15:01:36.420Z,2.13
2019-03-24T15:04:04.846Z,2.43
2019-03-24T15:06:33.253Z,3.53
2019-03-24T15:09:01.664Z,2.07
2019-03-24T15:11:30.077Z,2.37
2019-03-24T15:13:58.488Z,1.80
2019-03-24T15:16:26.906Z,2.40
2019-03-24T15:18:55.323Z,2.80
2019-03-24T15:21:23.732Z,2.60
2019-03-24T15:23:52.145Z,2.50
2019-03-24T15:26:20.565Z,2.70
2019-03-24T15:28:48.977Z,2.63
2019-03-24T15:31:19.119Z,2.40
2019-03-24T15:33:47.546Z,2.37
2019-03-24T15:36:15.958Z,2.70
2019-03-24T15:38:44.373Z,2.47
2019-03-24T15:41:12.808Z,2.67
2019-03-24T15:43:41.286Z,3.00
2019-03-24T15:46:09.753Z,3.20
2019-03-24T15:48:38.115Z,2.80
2019-03-24T15:51:16.351Z,2.50
2019-03-24T15:53:36.667Z,2.70
2019-03-24T15:56:05.819Z,2.40
2019-03-24T15:58:36.976Z,2.70
2019-03-24T16:01:05.464Z,2.50
2019-03-24T16:03:33.880Z,4.97
2019-03-24T16:06:02.280Z,2.37
2019-03-24T16:08:30.701Z,2.77
2019-03-24T16:11:00.832Z,3.00
2019-03-24T16:13:29.275Z,3.53
2019-03-24T16:15:57.727Z,3.73
2019-03-24T16:18:31.376Z,2.93
2019-03-24T16:20:59.886Z,3.30
2019-03-24T16:23:32.721Z,2.90
2019-03-24T16:26:01.227Z,3.97
2019-03-24T16:28:35.282Z,3.70
2019-03-24T16:31:06.530Z,2.87
2019-03-24T16:33:36.245Z,4.10
2019-03-24T16:36:06.166Z,2.40
2019-03-24T16:38:48.828Z,2.70
2019-03-24T16:41:11.937Z,2.90
2019-03-24T16:43:46.313Z,2.63
2019-03-24T16:46:16.433Z,2.33
2019-03-24T16:48:44.858Z,3.30
2019-03-24T16:51:16.305Z,2.80
2019-03-24T16:53:47.932Z,2.60
2019-03-24T16:56:32.557Z,2.57
2019-03-24T16:59:04.000Z,9.00
2019-03-24T17:01:35.167Z,3.40
2019-03-24T17:04:05.297Z,3.30
2019-03-24T17:06:42.295Z,3.03
2019-03-24T17:09:18.245Z,3.47
2019-03-24T17:11:51.572Z,2.87
2019-03-24T17:14:20.904Z,3.47
2019-03-24T17:16:52.366Z,8.03
2019-03-24T17:19:20.785Z,3.07
2019-03-24T17:21:52.160Z,2.70
2019-03-24T17:24:20.606Z,3.80
2019-03-24T17:26:49.040Z,4.03
2019-03-24T17:29:17.524Z,3.37
2019-03-24T17:31:46.003Z,3.63
2019-03-24T17:34:17.701Z,3.53
2019-03-24T17:36:52.015Z,3.50
2019-03-24T17:39:20.443Z,3.30
2019-03-24T17:41:54.836Z,3.50
2019-03-24T17:44:26.302Z,3.17
2019-03-24T17:46:54.852Z,4.20
2019-03-24T17:49:24.149Z,3.57
2019-03-24T17:52:00.964Z,3.43
2019-03-24T17:54:28.623Z,3.47
2019-03-24T17:57:03.556Z,3.60
2019-03-24T17:59:41.059Z,3.53
2019-03-24T18:02:14.641Z,2.67
2019-03-24T18:04:50.545Z,2.87
2019-03-24T18:07:20.515Z,3.40
2019-03-24T18:09:48.909Z,2.97
2019-03-24T18:12:21.009Z,2.53
2019-03-24T18:14:49.091Z,3.83
2019-03-24T18:17:18.504Z,3.30
2019-03-24T18:19:50.916Z,4.20
2019-03-24T18:22:19.302Z,3.40
2019-03-24T18:24:53.620Z,3.20
2019-03-24T18:27:31.043Z,3.23
2019-03-24T18:29:59.892Z,3.00
2019-03-24T18:32:28.400Z,2.37
2019-03-24T18:34:56.830Z,3.33
2019-03-24T18:37:26.869Z,3.03
2019-03-24T18:39:55.262Z,2.53
2019-03-24T18:42:23.751Z,3.13
2019-03-24T18:44:53.690Z,3.50
2019-03-24T18:47:22.140Z,2.67
2019-03-24T18:49:50.560Z,2.80
2019-03-24T18:52:22.831Z,3.00
2019-03-24T18:54:52.178Z,3.03
2019-03-24T18:57:23.577Z,3.50
2019-03-24T18:59:52.022Z,3.13
2019-03-24T19:02:20.448Z,3.27
2019-03-24T19:04:48.839Z,2.53
2019-03-24T19:07:17.256Z,3.90
2019-03-24T19:09:45.650Z,3.50
2019-03-24T19:12:14.127Z,3.20
2019-03-24T19:14:43.016Z,3.20
2019-03-24T19:17:11.426Z,3.27
2019-03-24T19:19:39.852Z,3.33
2019-03-24T19:22:08.425Z,3.00
2019-03-24T19:24:36.825Z,2.80
2019-03-24T19:27:05.435Z,3.10
2019-03-24T19:29:33.865Z,3.50
2019-03-24T19:32:02.342Z,4.03
2019-03-24T19:34:31.119Z,4.10
2019-03-24T19:36:59.670Z,3.00
2019-03-24T19:39:28.145Z,3.60
2019-03-24T19:41:56.572Z,3.00
2019-03-24T19:44:24.975Z,3.50
2019-03-24T19:46:53.429Z,3.83
2019-03-24T19:49:21.832Z,3.37
2019-03-24T19:51:50.352Z,3.13
2019-03-24T19:54:18.749Z,3.77
2019-03-24T19:56:47.239Z,3.37
2019-03-24T19:59:15.679Z,3.33
2019-03-24T20:01:44.083Z,2.90
2019-03-24T20:04:12.517Z,5.10
2019-03-24T20:06:40.899Z,4.00
2019-03-24T20:09:11.308Z,4.17
2019-03-24T20:11:41.203Z,3.97
2019-03-24T20:14:09.591Z,3.33
2019-03-24T20:16:38.039Z,2.77
2019-03-24T20:19:06.476Z,3.13
2019-03-24T20:21:34.902Z,2.90
2019-03-24T20:24:03.376Z,3.03
2019-03-24T20:26:31.792Z,2.50
2019-03-24T20:29:00.200Z,2.97
2019-03-24T20:31:28.650Z,3.40
2019-03-24T20:33:57.050Z,3.40
2019-03-24T20:36:25.494Z,2.83
2019-03-24T20:38:53.893Z,3.60
2019-03-24T20:41:22.326Z,3.30
2019-03-24T20:43:50.757Z,3.20
2019-03-24T20:46:19.145Z,3.23
2019-03-24T20:48:47.612Z,3.37
2019-03-24T20:51:16.037Z,3.50
2019-03-24T20:53:44.456Z,3.30
2019-03-24T20:56:12.889Z,8.63
2019-03-24T20:58:41.326Z,3.30
2019-03-24T21:01:09.759Z,4.13
2019-03-24T21:03:38.157Z,3.50
2019-03-24T21:06:06.654Z,3.73
2019-03-24T21:08:35.070Z,3.33
2019-03-24T21:11:03.482Z,3.57
2019-03-24T21:13:31.894Z,3.90
2019-03-24T21:16:00.313Z,3.67
2019-03-24T21:18:28.730Z,3.60
2019-03-24T21:20:57.147Z,3.17
2019-03-24T21:23:29.795Z,3.63
2019-03-24T21:25:55.762Z,4.37
2019-03-24T21:28:24.203Z,3.87
2019-03-24T21:30:52.615Z,4.73
2019-03-24T21:33:21.026Z,3.40
2019-03-24T21:35:49.528Z,3.63
2019-03-24T21:38:17.949Z,4.13
2019-03-24T21:40:46.363Z,3.47
2019-03-24T21:43:14.884Z,4.70
2019-03-24T21:45:43.731Z,4.10
2019-03-24T21:48:12.162Z,3.57
2019-03-24T21:50:40.606Z,3.50
2019-03-24T21:53:09.089Z,4.00
2019-03-24T21:55:37.502Z,5.23
2019-03-24T21:58:05.980Z,3.77
2019-03-24T22:00:35.921Z,3.70
2019-03-24T22:03:04.687Z,5.73
2019-03-24T22:05:33.158Z,4.10
2019-03-24T22:08:01.653Z,13.30
2019-03-24T22:10:30.064Z,4.67
2019-03-24T22:12:58.539Z,5.17
2019-03-24T22:15:27.038Z,3.90
2019-03-24T22:17:55.595Z,3.90
2019-03-24T22:20:24.019Z,4.37
2019-03-24T22:22:52.412Z,4.50
2019-03-24T22:25:20.843Z,5.47
2019-03-24T22:27:49.262Z,4.07
2019-03-24T22:30:18.022Z,22.90
2019-03-24T22:32:46.489Z,7.77
2019-03-24T22:35:14.910Z,3.90
2019-03-24T22:37:43.333Z,3.60
2019-03-24T22:40:12.064Z,5.13
2019-03-24T22:42:40.464Z,4.30
2019-03-24T22:45:09.123Z,3.83
2019-03-24T22:47:37.523Z,3.87
2019-03-24T22:50:08.133Z,3.47
2019-03-24T22:52:37.117Z,4.10
2019-03-24T22:55:08.961Z,3.70
2019-03-24T22:57:37.417Z,3.70
2019-03-24T23:00:15.492Z,3.30
2019-03-24T23:02:43.908Z,9.00
2019-03-24T23:05:12.496Z,4.90
2019-03-24T23:07:40.920Z,3.90
2019-03-24T23:10:09.454Z,4.07
2019-03-24T23:12:37.885Z,3.47
2019-03-24T23:15:07.409Z,4.13
2019-03-24T23:17:36.091Z,4.47
2019-03-24T23:20:06.137Z,3.77
2019-03-24T23:22:34.641Z,3.70
2019-03-24T23:25:03.239Z,3.80
2019-03-24T23:27:31.667Z,3.47
2019-03-24T23:30:00.072Z,4.07
2019-03-24T23:32:28.546Z,3.87
2019-03-24T23:34:56.966Z,3.90
2019-03-24T23:37:25.375Z,2.70
2019-03-24T23:39:53.804Z,6.17
2019-03-24T23:42:22.268Z,6.40
2019-03-24T23:44:50.699Z,4.23
2019-03-24T23:47:19.088Z,4.67
2019-03-24T23:49:47.479Z,3.80
2019-03-24T23:52:15.892Z,3.90
2019-03-24T23:54:44.293Z,4.33
2019-03-24T23:57:12.688Z,4.67
2019-03-24T23:59:41.092Z,4.07
